createdAt,value
2018-07-23T00:01:16.310Z,19.00
2018-07-23T00:03:45.507Z,19.00
2018-07-23T00:06:14.765Z,19.10
2018-07-23T00:08:43.990Z,19.10
2018-07-23T00:11:13.241Z,19.10
2018-07-23T00:13:42.544Z,19.10
2018-07-23T00:16:12.051Z,19.20
2018-07-23T00:18:41.345Z,19.30
2018-07-23T00:21:10.543Z,19.30
2018-07-23T00:23:39.806Z,19.30
2018-07-23T00:26:09.417Z,19.40
2018-07-23T00:28:38.644Z,19.30
2018-07-23T00:31:07.841Z,19.20
2018-07-23T00:33:37.061Z,19.30
2018-07-23T00:36:06.483Z,19.30
2018-07-23T00:38:35.676Z,19.30
2018-07-23T00:41:04.869Z,19.20
2018-07-23T00:43:34.113Z,19.20
2018-07-23T00:46:03.441Z,19.20
2018-07-23T00:48:32.658Z,19.20
2018-07-23T00:51:02.105Z,19.20
2018-07-23T00:53:31.444Z,19.20
2018-07-23T00:56:00.634Z,19.20
2018-07-23T00:58:29.856Z,19.20
2018-07-23T01:00:59.926Z,19.20
2018-07-23T01:03:29.116Z,19.20
2018-07-23T01:05:58.317Z,19.10
2018-07-23T01:08:27.572Z,19.00
2018-07-23T01:10:56.752Z,19.00
2018-07-23T01:13:25.996Z,18.90
2018-07-23T01:15:55.326Z,18.90
2018-07-23T01:18:24.516Z,18.90
2018-07-23T01:20:53.739Z,19.00
2018-07-23T01:23:22.941Z,19.00
2018-07-23T01:25:52.156Z,19.00
2018-07-23T01:28:21.430Z,19.00
2018-07-23T01:30:50.757Z,19.00
2018-07-23T01:33:19.991Z,19.00
2018-07-23T01:35:49.198Z,19.00
2018-07-23T01:38:18.396Z,18.90
2018-07-23T01:40:47.766Z,18.90
2018-07-23T01:43:17.005Z,18.80
2018-07-23T01:45:46.268Z,18.80
2018-07-23T01:48:15.575Z,18.80
2018-07-23T01:50:44.857Z,18.70
2018-07-23T01:53:14.116Z,18.70
2018-07-23T01:55:43.328Z,18.70
2018-07-23T01:58:12.576Z,18.70
2018-07-23T02:00:41.872Z,18.70
2018-07-23T02:03:11.228Z,18.80
2018-07-23T02:05:40.550Z,18.80
2018-07-23T02:08:09.760Z,18.70
2018-07-23T02:10:38.997Z,18.60
2018-07-23T02:13:08.229Z,18.60
2018-07-23T02:15:37.483Z,18.70
2018-07-23T02:18:07.012Z,18.70
2018-07-23T02:20:36.277Z,18.70
2018-07-23T02:23:05.477Z,18.60
2018-07-23T02:25:34.689Z,18.60
2018-07-23T02:28:03.883Z,18.60
2018-07-23T02:30:33.101Z,18.60
2018-07-23T02:33:02.272Z,18.60
2018-07-23T02:35:31.496Z,18.60
2018-07-23T02:38:00.718Z,18.60
2018-07-23T02:40:29.944Z,18.50
2018-07-23T02:42:59.154Z,18.40
2018-07-23T02:45:28.369Z,18.50
2018-07-23T02:47:57.730Z,18.50
2018-07-23T02:50:26.957Z,18.40
2018-07-23T02:52:56.225Z,18.50
2018-07-23T02:55:25.471Z,18.40
2018-07-23T02:57:54.770Z,18.30
2018-07-23T03:00:23.981Z,18.20
2018-07-23T03:02:53.305Z,18.20
2018-07-23T03:05:22.539Z,18.20
2018-07-23T03:07:51.853Z,18.20
2018-07-23T03:10:21.053Z,18.10
2018-07-23T03:12:50.274Z,18.20
2018-07-23T03:15:19.491Z,18.00
2018-07-23T03:17:48.747Z,17.90
2018-07-23T03:20:17.941Z,17.90
2018-07-23T03:22:47.120Z,17.90
2018-07-23T03:25:16.365Z,17.90
2018-07-23T03:27:45.579Z,18.00
2018-07-23T03:30:14.862Z,18.00
2018-07-23T03:32:44.083Z,18.10
2018-07-23T03:35:13.301Z,18.10
2018-07-23T03:37:42.501Z,18.10
2018-07-23T03:40:11.800Z,18.00
2018-07-23T03:42:40.981Z,17.90
2018-07-23T03:45:10.207Z,17.90
2018-07-23T03:47:39.425Z,18.00
2018-07-23T03:50:08.672Z,18.00
2018-07-23T03:52:37.899Z,18.10
2018-07-23T03:55:07.105Z,18.00
2018-07-23T03:57:36.383Z,17.90
2018-07-23T04:00:05.945Z,17.90
2018-07-23T04:02:35.245Z,17.90
2018-07-23T04:05:04.900Z,18.00
2018-07-23T04:07:34.257Z,17.90
2018-07-23T04:10:03.595Z,17.80
2018-07-23T04:12:32.854Z,17.80
2018-07-23T04:15:02.083Z,17.80
2018-07-23T04:17:31.301Z,17.80
2018-07-23T04:20:00.628Z,17.70
2018-07-23T04:22:29.847Z,17.70
2018-07-23T04:24:59.072Z,17.80
2018-07-23T04:27:28.340Z,17.80
2018-07-23T04:29:57.576Z,17.80
2018-07-23T04:32:26.783Z,17.90
2018-07-23T04:34:56.003Z,17.90
2018-07-23T04:37:25.288Z,18.00
2018-07-23T04:39:54.519Z,18.00
2018-07-23T04:42:23.715Z,18.00
2018-07-23T04:44:52.936Z,18.00
2018-07-23T04:47:22.187Z,18.10
2018-07-23T04:49:51.434Z,18.10
2018-07-23T04:52:20.767Z,18.10
2018-07-23T04:54:50.000Z,18.20
2018-07-23T04:57:19.197Z,18.10
2018-07-23T04:59:48.484Z,18.20
2018-07-23T05:02:17.706Z,18.20
2018-07-23T05:04:46.961Z,18.20
2018-07-23T05:07:16.235Z,18.20
2018-07-23T05:09:45.541Z,18.20
2018-07-23T05:12:14.822Z,18.30
2018-07-23T05:14:44.062Z,18.30
2018-07-23T05:17:13.792Z,18.30
2018-07-23T05:19:43.063Z,18.30
2018-07-23T05:22:12.333Z,18.30
2018-07-23T05:24:41.549Z,18.40
2018-07-23T05:27:11.237Z,18.30
2018-07-23T05:29:40.473Z,18.20
2018-07-23T05:32:10.179Z,18.20
2018-07-23T05:34:39.437Z,18.20
2018-07-23T05:37:08.677Z,18.20
2018-07-23T05:39:37.915Z,18.30
2018-07-23T05:42:07.148Z,18.40
2018-07-23T05:44:36.485Z,18.30
2018-07-23T05:47:05.696Z,18.30
2018-07-23T05:49:34.949Z,18.30
2018-07-23T05:52:04.178Z,18.40
2018-07-23T05:54:33.517Z,18.40
2018-07-23T05:57:02.735Z,18.50
2018-07-23T05:59:31.946Z,18.50
2018-07-23T06:02:01.163Z,18.60
2018-07-23T06:04:30.385Z,18.70
2018-07-23T06:06:59.682Z,18.80
2018-07-23T06:09:28.853Z,18.90
2018-07-23T06:11:58.069Z,18.90
2018-07-23T06:14:27.270Z,19.00
2018-07-23T06:16:56.502Z,19.10
2018-07-23T06:19:25.712Z,19.10
2018-07-23T06:21:54.924Z,19.30
2018-07-23T06:24:24.150Z,19.40
2018-07-23T06:26:53.349Z,19.60
2018-07-23T06:29:22.647Z,19.70
2018-07-23T06:31:51.865Z,19.90
2018-07-23T06:34:21.108Z,20.00
2018-07-23T06:36:50.314Z,20.00
2018-07-23T06:39:19.559Z,20.10
2018-07-23T06:41:48.796Z,20.10
2018-07-23T06:44:18.035Z,20.30
2018-07-23T06:46:47.282Z,20.30
2018-07-23T06:49:16.559Z,20.40
2018-07-23T06:51:45.807Z,20.40
2018-07-23T06:54:15.005Z,20.50
2018-07-23T06:56:44.232Z,20.60
2018-07-23T06:59:13.450Z,20.70
2018-07-23T07:01:42.700Z,20.80
2018-07-23T07:04:12.718Z,20.90
2018-07-23T07:06:41.961Z,21.10
2018-07-23T07:09:11.618Z,21.20
2018-07-23T07:11:40.962Z,21.30
2018-07-23T07:14:10.205Z,21.40
2018-07-23T07:16:39.417Z,21.40
2018-07-23T07:19:08.585Z,21.50
2018-07-23T07:21:37.801Z,21.60
2018-07-23T07:24:07.041Z,21.60
2018-07-23T07:26:36.293Z,21.60
2018-07-23T07:29:05.471Z,21.70
2018-07-23T07:31:34.683Z,21.80
2018-07-23T07:34:03.919Z,21.90
2018-07-23T07:36:33.127Z,22.00
2018-07-23T07:39:02.317Z,22.00
2018-07-23T07:41:31.529Z,22.10
2018-07-23T07:44:00.782Z,22.20
2018-07-23T07:46:29.988Z,22.20
2018-07-23T07:48:59.225Z,22.20
2018-07-23T07:51:28.440Z,22.30
2018-07-23T07:53:57.647Z,22.40
2018-07-23T07:56:26.869Z,22.40
2018-07-23T07:58:56.083Z,22.50
2018-07-23T08:01:25.281Z,22.70
2018-07-23T08:03:54.585Z,22.80
2018-07-23T08:06:23.813Z,23.00
2018-07-23T08:08:53.108Z,23.20
2018-07-23T08:11:22.414Z,23.30
2018-07-23T08:13:51.685Z,23.50
2018-07-23T08:16:20.984Z,23.70
2018-07-23T08:18:50.221Z,23.90
2018-07-23T08:21:19.422Z,23.90
2018-07-23T08:23:48.646Z,24.00
2018-07-23T08:26:17.854Z,24.20
2018-07-23T08:28:47.216Z,24.30
2018-07-23T08:31:16.409Z,24.50
2018-07-23T08:33:45.946Z,24.70
2018-07-23T08:36:15.156Z,24.80
2018-07-23T08:38:44.437Z,25.00
2018-07-23T08:41:13.677Z,25.10
2018-07-23T08:43:42.889Z,25.20
2018-07-23T08:46:12.121Z,25.30
2018-07-23T08:48:41.359Z,25.40
2018-07-23T08:51:10.640Z,25.60
2018-07-23T08:53:39.844Z,25.60
2018-07-23T08:56:09.077Z,25.70
2018-07-23T08:58:38.294Z,25.80
2018-07-23T09:01:07.800Z,25.90
2018-07-23T09:03:37.074Z,26.00
2018-07-23T09:06:06.332Z,26.10
2018-07-23T09:08:35.804Z,26.10
2018-07-23T09:11:05.034Z,26.30
2018-07-23T09:13:34.467Z,26.40
2018-07-23T09:16:03.715Z,26.60
2018-07-23T09:18:32.968Z,26.70
2018-07-23T09:21:02.200Z,26.80
2018-07-23T09:26:00.498Z,27.00
2018-07-23T09:28:29.694Z,27.20
2018-07-23T09:30:58.926Z,27.30
2018-07-23T09:33:28.153Z,27.40
2018-07-23T09:35:57.392Z,27.60
2018-07-23T09:38:26.597Z,27.70
2018-07-23T09:40:55.841Z,27.90
2018-07-23T09:43:25.088Z,28.00
2018-07-23T09:45:54.328Z,27.80
2018-07-23T09:48:23.596Z,28.00
2018-07-23T09:50:52.775Z,28.10
2018-07-23T09:53:22.036Z,28.10
2018-07-23T09:55:51.345Z,28.20
2018-07-23T09:58:20.613Z,28.10
2018-07-23T10:00:54.814Z,28.00
2018-07-23T10:03:24.138Z,28.00
2018-07-23T10:05:53.328Z,27.80
2018-07-23T10:08:22.608Z,27.80
2018-07-23T10:10:51.867Z,27.60
2018-07-23T10:13:21.113Z,27.40
2018-07-23T10:15:50.419Z,27.30
2018-07-23T10:18:19.905Z,27.40
2018-07-23T10:20:49.162Z,27.60
2018-07-23T10:23:18.401Z,27.70
2018-07-23T10:25:47.680Z,27.90
2018-07-23T10:28:16.937Z,28.00
2018-07-23T10:30:46.187Z,28.10
2018-07-23T10:33:15.577Z,28.20
2018-07-23T10:35:44.887Z,28.00
2018-07-23T10:38:14.224Z,28.10
2018-07-23T10:40:43.459Z,28.30
2018-07-23T10:43:12.694Z,28.60
2018-07-23T10:45:41.901Z,28.80
2018-07-23T10:48:11.119Z,28.80
2018-07-23T10:50:40.302Z,28.80
2018-07-23T10:53:09.491Z,28.90
2018-07-23T10:55:38.777Z,28.90
2018-07-23T10:58:07.978Z,28.80
2018-07-23T11:00:37.174Z,28.70
2018-07-23T11:03:06.708Z,28.70
2018-07-23T11:05:35.899Z,28.60
2018-07-23T11:08:05.445Z,28.50
2018-07-23T11:10:34.613Z,28.50
2018-07-23T11:15:32.764Z,28.50
2018-07-23T11:18:02.034Z,28.40
2018-07-23T11:20:31.295Z,28.30
2018-07-23T11:23:00.529Z,28.30
2018-07-23T11:25:40.894Z,28.20
2018-07-23T11:27:58.932Z,28.20
2018-07-23T11:30:28.108Z,28.30
2018-07-23T11:32:57.309Z,28.40
2018-07-23T11:35:26.476Z,28.60
2018-07-23T11:37:55.678Z,28.70
2018-07-23T11:40:24.896Z,28.80
2018-07-23T11:42:54.217Z,28.70
2018-07-23T11:45:23.490Z,28.70
2018-07-23T11:47:52.713Z,28.60
2018-07-23T11:50:21.877Z,28.60
2018-07-23T11:52:51.104Z,28.60
2018-07-23T11:55:20.275Z,28.50
2018-07-23T11:57:49.476Z,28.40
2018-07-23T12:00:18.698Z,28.40
2018-07-23T12:02:48.056Z,28.40
2018-07-23T12:05:17.299Z,28.40
2018-07-23T12:07:46.528Z,28.60
2018-07-23T12:10:15.793Z,28.80
2018-07-23T12:12:45.024Z,29.00
2018-07-23T12:15:14.690Z,29.20
2018-07-23T12:17:43.874Z,29.30
2018-07-23T12:20:13.138Z,29.40
2018-07-23T12:22:42.330Z,29.50
2018-07-23T12:25:11.532Z,29.60
2018-07-23T12:27:40.756Z,29.60
2018-07-23T12:30:09.954Z,29.60
2018-07-23T12:32:39.152Z,29.90
2018-07-23T12:35:08.388Z,30.00
2018-07-23T12:37:37.580Z,29.90
2018-07-23T12:40:06.961Z,29.90
2018-07-23T12:42:36.122Z,29.80
2018-07-23T12:45:05.629Z,29.60
2018-07-23T12:47:34.838Z,29.50
2018-07-23T12:50:04.113Z,29.40
2018-07-23T12:52:33.364Z,29.30
2018-07-23T12:55:02.591Z,29.30
2018-07-23T12:57:31.780Z,29.30
2018-07-23T13:00:01.029Z,29.30
2018-07-23T13:02:30.209Z,29.40
2018-07-23T13:04:59.431Z,29.60
2018-07-23T13:07:28.615Z,29.80
2018-07-23T13:09:57.812Z,29.50
2018-07-23T13:12:28.326Z,29.80
2018-07-23T13:14:57.607Z,29.90
2018-07-23T13:17:26.792Z,29.90
2018-07-23T13:19:56.392Z,29.80
2018-07-23T13:22:25.632Z,29.70
2018-07-23T13:24:54.866Z,29.60
2018-07-23T13:27:24.092Z,29.40
2018-07-23T13:29:53.352Z,29.30
2018-07-23T13:32:23.589Z,29.20
2018-07-23T13:34:52.871Z,29.30
2018-07-23T13:37:22.070Z,29.40
2018-07-23T13:39:51.284Z,29.50
2018-07-23T13:42:20.484Z,29.60
2018-07-23T13:44:49.729Z,29.80
2018-07-23T13:47:18.936Z,29.90
2018-07-23T13:49:48.174Z,30.00
2018-07-23T13:52:17.556Z,30.00
2018-07-23T13:54:46.925Z,30.10
2018-07-23T13:57:16.140Z,30.10
2018-07-23T13:59:45.440Z,30.10
2018-07-23T14:02:14.627Z,30.00
2018-07-23T14:04:43.853Z,29.90
2018-07-23T14:07:13.069Z,29.90
2018-07-23T14:09:42.285Z,29.80
2018-07-23T14:12:11.562Z,29.70
2018-07-23T14:17:09.831Z,29.60
2018-07-23T14:19:39.064Z,29.60
2018-07-23T14:22:08.361Z,29.50
2018-07-23T14:24:37.528Z,29.50
2018-07-23T14:27:06.940Z,29.30
2018-07-23T14:29:36.180Z,29.10
2018-07-23T14:32:05.443Z,29.10
2018-07-23T14:34:34.612Z,28.90
2018-07-23T14:37:03.853Z,28.90
2018-07-23T14:39:33.108Z,28.70
2018-07-23T14:42:02.317Z,28.70
2018-07-23T14:44:31.557Z,28.70
2018-07-23T14:47:00.806Z,28.80
2018-07-23T14:49:30.010Z,28.90
2018-07-23T14:51:59.336Z,29.00
2018-07-23T14:54:28.609Z,29.20
2018-07-23T14:56:57.824Z,29.20
2018-07-23T14:59:27.028Z,29.10
2018-07-23T15:01:56.252Z,28.80
2018-07-23T15:04:25.468Z,28.90
2018-07-23T15:06:54.645Z,28.80
2018-07-23T15:09:23.869Z,29.00
2018-07-23T15:11:53.154Z,29.20
2018-07-23T15:14:22.882Z,29.20
2018-07-23T15:16:52.097Z,29.30
2018-07-23T15:19:21.399Z,29.40
2018-07-23T15:21:50.691Z,29.40
2018-07-23T15:24:19.924Z,29.60
2018-07-23T15:26:49.165Z,29.50
2018-07-23T15:29:18.440Z,29.50
2018-07-23T15:31:47.730Z,29.40
2018-07-23T15:34:17.529Z,29.40
2018-07-23T15:36:46.744Z,29.50
2018-07-23T15:41:44.971Z,29.50
2018-07-23T15:46:43.149Z,29.30
2018-07-23T15:49:12.564Z,29.40
2018-07-23T15:51:41.799Z,29.40
2018-07-23T15:54:11.016Z,29.30
2018-07-23T15:56:40.237Z,29.40
2018-07-23T15:59:09.470Z,29.30
2018-07-23T16:01:38.704Z,29.20
2018-07-23T16:04:07.953Z,29.30
2018-07-23T16:06:37.186Z,29.30
2018-07-23T16:09:12.136Z,29.30
2018-07-23T16:11:42.368Z,29.30
2018-07-23T16:14:12.321Z,29.30
2018-07-23T16:16:41.518Z,29.20
2018-07-23T16:19:10.752Z,29.20
2018-07-23T16:21:40.050Z,29.10
2018-07-23T16:24:09.288Z,29.10
2018-07-23T16:26:38.523Z,29.00
2018-07-23T16:29:07.749Z,29.00
2018-07-23T16:31:37.048Z,29.00
2018-07-23T16:34:06.296Z,29.00
2018-07-23T16:36:35.513Z,29.00
2018-07-23T16:39:08.131Z,28.90
2018-07-23T16:41:37.347Z,28.80
2018-07-23T16:44:06.988Z,28.60
2018-07-23T16:46:36.310Z,28.50
2018-07-23T16:49:06.158Z,28.60
2018-07-23T16:51:35.405Z,28.60
2018-07-23T16:54:04.602Z,28.60
2018-07-23T16:56:33.931Z,28.60
2018-07-23T16:59:03.164Z,28.50
2018-07-23T17:01:32.398Z,28.40
2018-07-23T17:04:01.599Z,28.30
2018-07-23T17:06:30.828Z,28.30
2018-07-23T17:09:00.074Z,28.30
2018-07-23T17:11:29.352Z,28.30
2018-07-23T17:13:58.673Z,28.30
2018-07-23T17:16:27.892Z,28.30
2018-07-23T17:18:58.146Z,28.20
2018-07-23T17:21:27.376Z,28.20
2018-07-23T17:23:56.576Z,28.10
2018-07-23T17:26:25.853Z,28.10
2018-07-23T17:28:55.112Z,28.10
2018-07-23T17:31:24.340Z,28.00
2018-07-23T17:33:53.562Z,28.00
2018-07-23T17:36:22.941Z,27.90
2018-07-23T17:38:52.200Z,27.80
2018-07-23T17:41:21.458Z,27.80
2018-07-23T17:43:50.665Z,27.70
2018-07-23T17:46:20.139Z,27.60
2018-07-23T17:48:49.437Z,27.50
2018-07-23T17:51:18.684Z,27.50
2018-07-23T17:53:47.940Z,27.40
2018-07-23T17:56:17.336Z,27.30
2018-07-23T17:58:46.604Z,27.30
2018-07-23T18:01:15.909Z,27.20
2018-07-23T18:03:45.165Z,27.20
2018-07-23T18:06:14.444Z,27.20
2018-07-23T18:08:43.751Z,27.10
2018-07-23T18:11:13.001Z,27.10
2018-07-23T18:13:42.544Z,27.10
2018-07-23T18:16:11.779Z,27.10
2018-07-23T18:18:41.071Z,27.00
2018-07-23T18:21:10.344Z,27.00
2018-07-23T18:23:39.607Z,27.00
2018-07-23T18:26:08.910Z,26.90
2018-07-23T18:28:38.148Z,26.90
2018-07-23T18:31:07.418Z,26.90
2018-07-23T18:33:36.667Z,26.90
2018-07-23T18:36:05.870Z,26.80
2018-07-23T18:38:35.294Z,26.80
2018-07-23T18:41:04.344Z,26.70
2018-07-23T18:43:33.564Z,26.70
2018-07-23T18:46:02.756Z,26.70
2018-07-23T18:49:47.923Z,26.70
2018-07-23T18:52:17.914Z,26.60
2018-07-23T18:54:48.452Z,26.50
2018-07-23T18:57:17.820Z,26.50
2018-07-23T18:59:47.148Z,26.40
2018-07-23T19:02:17.688Z,26.40
2018-07-23T19:04:46.900Z,26.30
2018-07-23T19:07:16.185Z,26.30
2018-07-23T19:09:45.536Z,26.20
2018-07-23T19:14:44.417Z,26.10
2018-07-23T19:17:14.557Z,26.00
2018-07-23T19:19:43.836Z,26.00
2018-07-23T19:22:13.043Z,25.90
2018-07-23T19:24:42.303Z,25.90
2018-07-23T19:27:11.516Z,25.80
2018-07-23T19:29:40.767Z,25.90
2018-07-23T19:34:39.226Z,25.60
2018-07-23T19:37:09.456Z,25.60
2018-07-23T19:39:38.681Z,25.60
2018-07-23T19:42:07.935Z,25.50
2018-07-23T19:44:37.117Z,25.30
2018-07-23T19:47:06.332Z,25.20
2018-07-23T19:49:35.570Z,25.00
2018-07-23T19:52:04.739Z,24.90
2018-07-23T19:54:33.931Z,24.60
2018-07-23T19:57:03.104Z,24.50
2018-07-23T19:59:32.328Z,24.40
2018-07-23T20:02:01.512Z,24.20
2018-07-23T20:04:30.721Z,24.30
2018-07-23T20:06:59.929Z,24.30
2018-07-23T20:09:29.123Z,24.20
2018-07-23T20:11:58.311Z,24.00
2018-07-23T20:14:27.649Z,23.90
2018-07-23T20:16:56.908Z,23.90
2018-07-23T20:19:26.136Z,23.70
2018-07-23T20:21:55.331Z,23.60
2018-07-23T20:24:24.516Z,23.40
2018-07-23T20:26:53.782Z,23.20
2018-07-23T20:29:23.001Z,23.30
2018-07-23T20:31:52.236Z,23.10
2018-07-23T20:36:50.435Z,22.90
2018-07-23T20:39:19.837Z,22.80
2018-07-23T20:41:49.124Z,22.90
2018-07-23T20:44:18.340Z,22.80
2018-07-23T20:46:47.589Z,22.80
2018-07-23T20:49:16.861Z,22.70
2018-07-23T20:51:46.132Z,22.50
2018-07-23T20:54:15.324Z,22.40
2018-07-23T20:56:44.589Z,22.30
2018-07-23T20:59:13.781Z,22.30
2018-07-23T21:01:43.020Z,22.20
2018-07-23T21:04:12.232Z,22.20
2018-07-23T21:06:41.484Z,22.10
2018-07-23T21:09:10.675Z,22.10
2018-07-23T21:11:39.920Z,22.10
2018-07-23T21:14:09.176Z,22.20
2018-07-23T21:16:38.411Z,22.10
2018-07-23T21:19:08.611Z,22.10
2018-07-23T21:21:37.867Z,22.00
2018-07-23T21:24:07.095Z,22.00
2018-07-23T21:26:36.440Z,22.00
2018-07-23T21:29:05.704Z,22.00
2018-07-23T21:31:34.920Z,21.80
2018-07-23T21:34:04.098Z,21.80
2018-07-23T21:36:33.328Z,21.80
2018-07-23T21:39:02.544Z,21.70
2018-07-23T21:41:31.827Z,21.60
2018-07-23T21:44:00.993Z,21.60
2018-07-23T21:46:30.257Z,21.70
2018-07-23T21:48:59.436Z,21.60
2018-07-23T21:51:28.709Z,21.50
2018-07-23T21:53:57.889Z,21.50
2018-07-23T21:56:27.106Z,21.40
2018-07-23T21:58:56.282Z,21.40
2018-07-23T22:01:25.497Z,21.40
2018-07-23T22:03:54.708Z,21.40
2018-07-23T22:06:24.692Z,21.50
2018-07-23T22:08:55.729Z,21.40
2018-07-23T22:13:53.944Z,21.20
2018-07-23T22:18:52.091Z,21.10
2018-07-23T22:21:21.324Z,21.10
2018-07-23T22:23:50.509Z,21.00
2018-07-23T22:26:19.689Z,21.00
2018-07-23T22:31:17.864Z,21.10
2018-07-23T22:33:47.079Z,21.00
2018-07-23T22:36:16.532Z,21.00
2018-07-23T22:38:48.625Z,20.80
2018-07-23T22:41:17.836Z,20.80
2018-07-23T22:43:47.047Z,20.80
2018-07-23T22:46:16.270Z,20.70
2018-07-23T22:48:45.517Z,20.50
2018-07-23T22:51:14.727Z,20.50
2018-07-23T22:53:44.409Z,20.40
2018-07-23T22:56:13.622Z,20.40
2018-07-23T22:58:42.860Z,20.30
2018-07-23T23:01:12.057Z,20.40
2018-07-23T23:03:41.279Z,20.30
2018-07-23T23:06:10.467Z,20.30
2018-07-23T23:08:39.714Z,20.20
2018-07-23T23:11:09.151Z,20.30
2018-07-23T23:13:38.383Z,20.30
2018-07-23T23:16:07.590Z,20.20
2018-07-23T23:18:36.838Z,20.20
2018-07-23T23:21:06.052Z,20.20
2018-07-23T23:23:35.284Z,20.10
2018-07-23T23:26:04.480Z,20.10
2018-07-23T23:28:33.704Z,20.10
2018-07-23T23:31:03.139Z,20.10
2018-07-23T23:33:32.367Z,20.00
2018-07-23T23:36:01.546Z,19.90
2018-07-23T23:38:30.732Z,19.90
2018-07-23T23:40:59.943Z,19.90
2018-07-23T23:43:29.158Z,19.80
2018-07-23T23:45:58.400Z,19.80
2018-07-23T23:48:27.632Z,19.70
2018-07-23T23:50:56.823Z,19.60
2018-07-23T23:53:26.052Z,19.60
2018-07-23T23:55:55.228Z,19.50
2018-07-23T23:58:24.458Z,19.50
